Strona główna
METAR-TAF:

METAR-TAF

Lotnisko :

Port lotniczy Bamako

Bamako, Mali

Szerokość geograficzna: 12-32N, Długość geograficzna: 007-57W, wysokość: 380 m

Aktualna obserwacja pogody

Raport powstał 43 minut temu, godzina 08:30 UTC
Wiatr 9 kt od północny wschód
Temperatura 21°C
Wilgotność 23%
Ciśnienie 1017 hPa
Widzialność 10 km lub więcej
Brak chmur poniżej 1500 m i brak chmur cumulonimbus

METAR: GABS 230830Z 05009KT CAVOK 21/M01 Q1017 NOSIG

czas: 09:13 (09:13 UTC)

Prognoza

Raport powstał 4 godziny i 13 minut temu, godzina 05:00 UTC
Prognoza ważna od 23 godzina 06 UTC do 24 godzina 12 UTC
Wiatr 10 kt od wschodnio-północny wschód w porywach dochodzący do 20 kt
Widzialność: 8000 m
Prawdopodobieństwo 40% :
Przejściowo
od 23 godzina 06 UTC do 23 godzina 14 UTC
Widzialność: 4000 m
pył

TAF: GABS 230500Z 2306/2412 06010G20KT 8000 NSC PROB40 TEMPO 2306/2314 4000 DU

Obserwacja i prognoza pogody dla ponad 4000 lotnisk (raport METAR i TAF).

Dostępne stacje oznaczono żółtymi i czerwonymi punktami na mapie.

Najedź kursorem aby zobaczyć nazwę stacji.

Kliknij aby zobaczyć obserwacje i prognozy pogody.

Aby zmienić mapę: kliknij na zielony przycisk z czarnym krzyżykiem, aby powiększyć; na zielony przycisk z myślnikiem, aby pomniejszyć; na zielone strzałki, aby przejść do map sąsiednich.


METAR-TAF: